x

Halibut Bank (46146) Wave Buoy

1:00 - Sat 25th Oct 2014 All times are PDT. -7 hours from GMT.

  • Sig Wave height 0.3ft
  • Peak Period 3s
  • Wind
    4mph, 7mph gusts
  • Sea Temp 52°f
  • Air Temp 51°f
  • Sea Pressure 1008.6mb
  • Halibut Bank
  • Halibut Bank

More Historic Weather Station data

Upgrade to MSW Pro to gain access to the past 30 days of data for over 8000 Wavebouys and Weather Stations around the globe.

Join Pro

Comparision Forecast

View Surf forecast
   
sam. 10/25 1:00 0.3ft 3s 4 7 mph 1008.6mb 52f 51f
12:00 0.7ft 3s 4
mph
1009.7mb 52f 52f
ven. 10/24 11:00 0.7ft 3s 7 9 mph 1010.2mb 52f 52f
10:00 0.7ft 2s 11 13 mph 1011.6mb 52f 52f
9:00 0.7ft 2s 9 13 mph 1011.5mb 52f 52f
8:00 0.3ft 2s 9 11 mph 1012.1mb 52f 52f
7:00 0.3ft 6s 9 11 mph 1012.9mb 52f 52f
6:00 0.3ft 5s 7
mph
1013.5mb 52f 52f
5:00 0.3ft 4s 4 7 mph 1014mb 52f 52f
4:00 0.3ft 2s  -  2 mph 1015.2mb 52f 53f
3:00 0.3ft 2s 2 4 mph 1015.8mb 53f 53f
2:00 0.7ft 2s 4 7 mph 1016.7mb 53f 53f
1:00 0.7ft 2s 9 11 mph 1017.5mb 52f 53f
12:00 1ft 2s 13 16 mph 1017.7mb 52f 52f
11:00 1ft 2s 13
mph
1018.2mb 52f 52f
10:00 1ft 2s 13 18 mph 1018.1mb 51f 52f
9:00 0.7ft 2s 13 16 mph 1017.8mb 51f 51f
8:00 0.7ft 2s 11 13 mph 1017.5mb 51f 51f
7:00 0.7ft 2s 11 13 mph 1017.1mb 52f 51f
6:00 0.7ft 2s 11 13 mph 1016.5mb 52f 51f
5:00 0.7ft 2s 11 13 mph 1016.5mb 52f 51f
4:00 1ft 2s 9 11 mph 1016.7mb 51f 51f
3:00 1ft 2s 13 16 mph 1016.5mb 51f 51f
2:00 1ft 2s 13 16 mph 1016.2mb 51f 51f
1:00 1ft 2s 16 18 mph 1015.8mb 51f 51f
12:00 0.7ft 2s 13 16 mph 1015.7mb 52f 52f
jeu. 10/23 11:00 0.7ft 2s 9 11 mph 1014.9mb 52f 51f
10:00 0.3ft 3s 11 13 mph 1014.1mb 52f 52f
9:00 0.3ft 3s 4 7 mph 1013.3mb 52f 52f
8:00 0.7ft 3s 4
mph
1012.2mb 52f 52f
7:00 0.7ft 3s 2
mph
1011.5mb 52f 52f
6:00 0.7ft 3s 4 7 mph 1010.6mb 52f 52f
5:00 1ft 3s 9
mph
1009.6mb 52f 52f
4:00 1.3ft 3s 9 13 mph 1008.8mb 52f 53f
3:00 1.3ft 3s 4 7 mph 1007.9mb 52f 52f
2:00 1ft 3s 7 9 mph 1007.3mb 52f 52f
1:00 1.3ft 3s 11 13 mph 1006.8mb 52f 52f
12:00 1.6ft 3s 11 13 mph 1006.4mb 52f 52f
11:00 1.3ft 3s 18 20 mph 1005.5mb 52f 52f
10:00 1ft 3s 16 18 mph 1004.8mb 52f 51f
9:00 1ft 3s 13 16 mph 1004.6mb 52f 52f
8:00 1.3ft 3s 11 13 mph 1004.5mb 52f 51f
7:00 1.3ft 3s 13 18 mph 1004.9mb 52f 52f
6:00 1ft 3s 18 20 mph 1004.2mb 52f 53f
5:00 0.7ft 3s 13 18 mph 1003.8mb 53f 53f
4:00 0.7ft 3s 9 11 mph 1004.2mb 53f 53f
3:00 0.7ft 4s 9
mph
1004.2mb 53f 53f
2:00 0.7ft 4s 7 9 mph 1004mb 53f 53f
1:00 0.7ft 3s 4 7 mph 1003.2mb 53f 52f
12:00 0.7ft 3s 4 7 mph 1002.3mb 53f 53f
mer. 10/22 11:00 1ft 3s 2
mph
1001.4mb 53f 53f
10:00 1ft 3s 7 9 mph 999.8mb 52f 52f
9:00 1.3ft 3s 11 13 mph 998.2mb 52f 52f
8:00 1.6ft 3s 7 11 mph 998.4mb 52f 53f
7:00 1.3ft 3s 11 13 mph 998.5mb 52f 53f
6:00 1.3ft 3s 13 16 mph 999.4mb 52f 53f
5:00 1.3ft 3s 16 18 mph 1000.1mb 52f 54f
4:00 1.6ft 3s 18 22 mph 1000.6mb 52f 55f
3:00 2ft 4s 18 20 mph 1001.7mb 52f 54f
2:00 2ft 3s 16 18 mph 1002.8mb 52f 54f
1:00 2ft 4s 18 22 mph 1003.3mb 52f 54f
12:00 2.5ft 4s 16 18 mph 1003.9mb 52f 54f
11:00 2.5ft 4s 13 18 mph 1004.1mb 52f 53f
10:00 2.5ft 5s 13
mph
1003.9mb 52f 53f
9:00 3.5ft 4s 13 18 mph 1003.1mb 51f 53f
8:00 4ft 6s 16 20 mph 1002.4mb 51f 53f
7:00 5ft 6s 22 27 mph 1001.5mb 51f 53f
6:00 4.5ft 5s 25 29 mph 1000.7mb 51f 54f
5:00 5ft 5s 22 27 mph 1000.5mb 51f 54f
4:00 5.5ft 5s 29 36 mph 999.1mb 52f 53f
3:00 5ft 6s 20 25 mph 1000.3mb 52f 53f
2:00 4.5ft 6s 22 29 mph 1000mb 52f 54f
1:00 5ft 5s 20 22 mph 1000mb 52f 54f
12:00 4.5ft 4s 25 29 mph 1000.4mb 52f 55f
mar. 10/21 11:00 3.5ft 4s 25 29 mph 1001.7mb 52f 55f
10:00 4ft 5s 22 27 mph 1003.1mb 52f 55f
9:00 3.5ft 4s 25 29 mph 1003.7mb 52f 54f
8:00 3.5ft 5s 22 27 mph 1004.6mb 52f 55f
7:00 3.5ft 4s 22 29 mph 1005.7mb 52f 54f
6:00 3.5ft 4s 22 29 mph 1006.5mb 52f 55f
5:00 3ft 4s 25 29 mph 1007mb 52f 55f
4:00 2.5ft 4s 22 25 mph 1007.5mb 52f 55f
3:00 2.5ft 4s 20 25 mph 1008mb 53f 55f
2:00 3ft 4s 20 22 mph 1008.7mb 53f 55f
1:00 3ft 4s 22 27 mph 1009.1mb 53f 55f
12:00 2.5ft 4s 22 27 mph 1009.6mb 53f 54f
11:00 2ft 3s 20 27 mph 1009.6mb 53f 55f
10:00 2ft 3s 18 22 mph 1009.3mb 53f 54f